Date,TemperatureHighF,TemperatureAvgF,TemperatureLowF,DewpointHighF,DewpointAvgF,DewpointLowF,HumidityHigh,HumidityAvg,HumidityLow,PressureMaxIn,PressureMinIn,WindSpeedMaxMPH,WindSpeedAvgMPH,GustSpeedMaxMPH,PrecipitationSumIn
2013-1-1,54.0,42.5,35.0,37.0,31.6,24.0,83,66,52,0.00,40.00,9,3,16,0.00
2013-1-2,60.0,43.1,34.0,36.0,29.9,25.0,76,61,39,0.00,40.00,5,2,9,0.00
2013-1-3,58.0,43.4,36.0,39.0,32.2,25.0,85,66,47,0.00,40.00,5,2,8,0.00
2013-1-4,61.0,45.1,36.0,39.0,34.8,30.0,85,69,42,0.00,40.00,4,2,10,0.00
2013-1-5,54.0,47.9,40.0,46.0,41.2,32.0,95,78,64,0.00,40.00,8,3,20,0.13
2013-1-6,47.0,44.5,38.0,46.0,41.6,36.0,98,90,81,0.00,40.00,7,3,18,0.26
2013-1-7,58.0,45.4,38.0,46.0,41.1,37.0,98,86,57,0.00,40.00,5,2,10,0.01
2013-1-8,62.0,46.9,40.0,49.0,42.5,39.0,99,86,55,0.00,40.00,4,2,10,0.00
2013-1-9,53.0,45.3,41.0,47.0,41.0,37.0,96,85,69,0.00,40.00,4,2,14,0.07
2013-1-10,51.0,43.1,38.0,38.0,33.3,29.0,87,69,46,0.00,40.00,7,3,17,0.01
2013-1-11,49.0,42.1,32.0,41.0,32.3,26.0,92,69,45,0.00,40.00,6,3,16,0.08
2013-1-12,51.0,39.6,31.0,35.0,27.5,20.0,93,65,32,0.00,40.00,5,3,10,0.08
2013-1-13,48.0,37.7,28.0,27.0,19.5,9.0,78,52,25,0.00,40.00,5,3,16,0.00
2013-1-14,53.0,40.2,31.0,20.0,13.1,5.0,56,34,17,0.00,40.00,7,3,19,0.00
2013-1-15,56.0,40.4,31.0,28.0,23.3,17.0,73,52,30,0.00,40.00,5,2,10,0.00
2013-1-16,60.0,42.4,33.0,35.0,30.2,26.0,76,64,38,0.00,40.00,5,2,8,0.00
2013-1-17,66.0,46.9,37.0,39.0,33.5,28.0,74,62,37,0.00,40.00,4,1,7,0.00
2013-1-18,65.0,49.0,40.0,41.0,34.3,28.0,71,58,39,0.00,40.00,4,1,7,0.00
2013-1-19,66.0,49.9,40.0,40.0,34.3,29.0,70,56,38,0.00,40.00,4,1,7,0.00
2013-1-20,67.0,49.8,40.0,42.0,31.9,25.0,64,51,32,0.00,40.00,5,2,7,0.00
2013-1-21,69.0,50.9,40.0,39.0,29.9,21.0,61,45,29,0.00,40.00,5,2,7,0.00
2013-1-22,66.0,52.8,42.0,41.0,29.2,20.0,51,40,32,0.00,40.00,4,2,7,0.00
2013-1-23,66.0,55.3,49.0,50.0,35.4,17.0,95,53,17,0.00,40.00,6,2,16,0.03
2013-1-24,53.0,50.5,48.0,52.0,49.9,47.0,100,98,89,0.00,40.00,4,1,8,0.26
2013-1-25,67.0,55.0,51.0,60.0,53.7,51.0,100,96,72,0.00,40.00,6,1,11,0.01
2013-1-26,58.0,50.7,44.0,53.0,45.5,38.0,100,84,51,0.00,40.00,7,3,16,0.01
2013-1-27,55.0,46.7,40.0,42.0,37.6,33.0,97,72,45,0.00,40.00,7,3,15,0.01
2013-1-28,56.0,45.2,36.0,42.0,38.3,33.0,99,78,52,0.00,40.00,6,3,13,0.00
2013-1-29,57.0,46.0,38.0,44.0,40.2,34.0,100,82,57,0.00,40.00,6,2,14,0.00
2013-1-30,69.0,54.2,43.0,51.0,40.3,33.0,90,63,34,0.00,40.00,7,3,15,0.00
2013-1-31,68.0,53.1,40.0,44.0,39.8,31.0,84,63,39,0.00,40.00,4,2,7,0.00
2013-2-1,70.0,52.9,41.0,49.0,42.6,36.0,84,70,43,0.00,40.00,5,2,9,0.00
2013-2-2,58.0,49.0,44.0,51.0,44.9,38.0,100,86,69,0.00,40.00,3,2,8,0.00
2013-2-3,59.0,48.2,41.0,47.0,43.1,40.0,100,84,56,0.00,40.00,6,2,14,0.00
2013-2-4,60.0,46.9,39.0,50.0,43.2,36.0,100,88,68,0.00,40.00,5,2,7,0.00
2013-2-5,54.0,47.7,44.0,47.0,44.1,41.0,100,88,72,0.00,40.00,5,2,14,0.00
2013-2-6,60.0,47.7,37.0,46.0,40.8,36.0,99,79,51,0.00,40.00,5,3,12,0.00
2013-2-7,56.0,44.3,36.0,47.0,38.0,34.0,92,79,56,0.00,40.00,6,2,13,0.04
2013-2-8,52.0,42.8,35.0,43.0,37.4,33.0,100,82,59,0.00,40.00,5,3,16,0.07
2013-2-9,58.0,44.3,33.0,35.0,28.5,22.0,93,57,32,0.00,40.00,6,3,13,0.01
2013-2-10,60.0,45.7,34.0,36.0,31.0,25.0,75,58,33,0.00,40.00,7,2,16,0.00
2013-2-11,62.0,47.0,35.0,36.0,28.5,23.0,81,53,22,0.00,40.00,7,3,14,0.00
2013-2-12,64.0,47.6,38.0,40.0,33.2,26.0,81,59,38,0.00,40.00,5,2,11,0.00
2013-2-13,64.0,48.1,38.0,45.0,37.9,33.0,83,69,47,0.00,40.00,6,2,12,0.00
2013-2-14,71.0,53.0,40.0,46.0,38.1,31.0,85,60,32,0.00,40.00,9,3,15,0.00
2013-2-15,75.0,56.9,44.0,45.0,38.4,31.0,65,51,30,0.00,40.00,5,2,10,0.00
2013-2-16,71.0,55.7,46.0,50.0,40.0,31.0,82,57,41,0.00,40.00,6,2,10,0.00
2013-2-17,65.0,49.6,39.0,47.0,41.6,36.0,92,75,51,0.00,40.00,5,2,12,0.00
2013-2-18,49.0,44.2,38.0,43.0,39.2,36.0,97,83,65,0.00,40.00,4,2,12,0.00
2013-2-19,47.0,42.3,38.0,42.0,38.2,32.0,97,85,70,0.00,40.00,5,2,16,0.52
2013-2-20,58.0,45.1,37.0,40.0,35.0,27.0,94,70,45,0.00,40.00,6,4,12,0.02
2013-2-21,58.0,46.7,36.0,40.0,36.0,33.0,94,69,42,0.00,40.00,7,3,17,0.00
2013-2-22,62.0,48.3,36.0,41.0,34.9,30.0,82,62,38,0.00,40.00,7,3,13,0.00
2013-2-23,57.0,48.6,38.0,46.0,40.3,31.0,100,75,46,0.00,40.00,8,4,18,0.01
2013-2-24,64.0,50.5,39.0,31.0,23.5,18.0,74,37,18,0.00,40.00,7,4,19,0.01
2013-2-25,62.0,48.7,38.0,44.0,33.4,23.0,88,57,35,0.00,40.00,7,3,13,0.00
2013-2-26,68.0,47.6,35.0,42.0,31.5,18.0,92,61,17,0.00,40.00,7,2,20,0.00
2013-2-27,71.0,51.9,40.0,39.0,30.6,23.0,75,46,24,0.00,40.00,6,2,12,0.00
2013-2-28,67.0,53.1,42.0,51.0,44.8,37.0,98,75,53,0.00,40.00,7,3,16,0.00
2013-3-1,72.0,57.3,46.0,55.0,48.5,44.0,98,75,46,0.00,40.00,5,3,11,0.00
2013-3-2,74.0,60.3,52.0,53.0,47.5,40.0,78,64,40,0.00,40.00,7,2,11,0.00
2013-3-3,65.0,55.1,44.0,52.0,45.9,42.0,99,74,45,0.00,40.00,6,3,15,0.00
2013-3-4,62.0,49.2,41.0,49.0,44.1,40.0,99,84,59,0.00,40.00,7,3,14,0.00
2013-3-5,60.0,49.7,39.0,43.0,39.5,35.0,100,71,43,0.00,40.00,9,4,20,0.00
2013-3-6,54.0,47.8,41.0,45.0,40.8,37.0,96,78,53,0.00,40.00,7,3,19,0.27
2013-3-7,58.0,47.6,37.0,45.0,37.6,31.0,100,72,35,0.00,40.00,6,2,15,0.31
2013-3-8,58.0,49.0,42.0,46.0,43.0,41.0,100,82,54,0.00,40.00,7,3,17,0.36
2013-3-9,65.0,52.2,44.0,46.0,41.2,35.0,87,68,43,0.00,40.00,7,3,15,0.01
2013-3-10,71.0,54.9,39.0,44.0,39.0,35.0,84,58,35,0.00,40.00,6,3,13,0.00
2013-3-11,72.0,54.6,42.0,46.0,40.0,34.0,77,60,38,0.00,40.00,6,2,14,0.00
2013-3-12,74.0,56.5,43.0,54.0,46.8,39.0,99,73,42,0.00,40.00,5,2,9,0.00
2013-3-13,80.0,60.8,48.0,57.0,50.3,44.0,91,71,39,0.00,40.00,5,2,16,0.00
2013-3-14,72.0,57.9,49.0,57.0,50.2,41.0,91,77,50,0.00,40.00,6,2,12,0.00
2013-3-15,70.0,55.6,45.0,51.0,43.7,35.0,84,65,49,0.00,40.00,5,3,11,0.00
2013-3-16,71.0,54.5,43.0,53.0,44.2,37.0,100,73,36,0.00,40.00,6,3,13,0.00
2013-3-17,68.0,52.3,41.0,48.0,42.8,38.0,99,73,37,0.00,40.00,6,3,14,0.00
2013-3-18,67.0,53.5,42.0,48.0,41.3,32.0,85,65,43,0.00,40.00,5,2,11,0.00
2013-3-19,74.0,56.6,46.0,50.0,39.3,30.0,90,54,34,0.00,40.00,7,3,14,0.06
2013-3-20,70.0,58.4,52.0,54.0,49.6,45.0,94,75,43,0.00,40.00,7,4,12,0.08
2013-3-21,63.0,51.6,43.0,49.0,43.2,39.0,94,75,49,0.00,40.00,7,4,18,0.02
2013-3-22,67.0,53.7,41.0,41.0,31.4,10.0,93,51,13,0.00,40.00,7,4,20,0.00
2013-3-23,70.0,54.6,40.0,43.0,34.3,24.0,97,53,19,0.00,40.00,6,3,14,0.00
2013-3-24,72.0,54.3,41.0,46.0,37.9,30.0,74,56,34,0.00,40.00,6,2,15,0.00
2013-3-25,63.0,50.0,41.0,47.0,41.3,36.0,88,73,54,0.00,40.00,6,3,15,0.00
2013-3-26,70.0,53.6,43.0,50.0,44.3,41.0,93,74,44,0.00,40.00,6,3,14,0.00
2013-3-27,68.0,53.6,45.0,50.0,45.9,42.0,95,78,53,0.00,40.00,5,2,10,0.00
2013-3-28,74.0,64.6,51.0,52.0,51.0,49.0,96,64,43,0.00,40.00,7,3,14,0.00
2013-3-29,80.0,60.4,46.0,55.0,50.8,46.0,100,75,37,0.00,40.00,6,2,14,0.00
2013-3-30,74.0,59.8,53.0,55.0,50.7,43.0,99,75,34,0.00,40.00,6,2,12,0.01
2013-3-31,68.0,59.0,53.0,53.0,48.4,41.0,96,71,38,0.00,40.00,5,3,14,0.07
2013-4-1,69.0,58.2,49.0,54.0,50.3,46.0,98,77,53,0.00,40.00,7,4,14,0.13
2013-4-2,69.0,55.6,44.0,53.0,48.8,44.0,100,80,55,0.00,40.00,7,3,15,0.03
2013-4-3,80.0,59.1,45.0,54.0,48.7,43.0,100,74,32,0.00,40.00,7,3,14,0.00
2013-4-4,69.0,57.8,50.0,55.0,51.6,45.0,94,81,62,0.00,40.00,6,4,14,0.20
2013-4-5,68.0,57.8,49.0,54.0,49.9,47.0,94,76,57,0.00,40.00,6,3,14,0.01
2013-4-6,67.0,55.0,47.0,53.0,49.1,45.0,99,82,59,0.00,40.00,6,2,13,0.00
2013-4-7,69.0,55.1,45.0,54.0,48.0,43.0,99,78,58,0.00,40.00,7,3,20,0.08
2013-4-8,67.0,52.6,43.0,49.0,38.9,27.0,99,65,23,0.00,40.00,8,5,22,0.28
2013-4-9,75.0,57.7,42.0,42.0,32.8,25.0,98,48,17,0.00,40.00,7,4,21,0.01
2013-4-10,83.0,67.5,52.0,49.0,44.2,29.0,78,45,29,0.00,40.00,7,4,17,0.00
2013-4-11,71.0,58.7,47.0,49.0,45.2,39.0,97,64,36,0.00,40.00,7,4,16,0.00
2013-4-12,78.0,56.7,42.0,49.0,43.7,39.0,94,66,32,0.00,40.00,6,2,13,0.00
2013-4-13,70.0,54.5,44.0,48.0,41.5,36.0,89,64,40,0.00,40.00,7,3,19,0.00
2013-4-14,67.0,51.8,40.0,45.0,38.9,30.0,89,66,25,0.00,40.00,8,4,15,0.00
2013-4-15,59.0,49.5,42.0,49.0,40.7,33.0,99,75,44,0.00,40.00,9,4,20,0.05
2013-4-16,65.0,50.1,35.0,38.0,34.8,30.0,95,61,27,0.00,40.00,8,4,20,0.01
2013-4-17,69.0,56.8,43.0,37.0,27.2,21.0,78,35,16,0.00,40.00,7,4,18,0.00
2013-4-18,77.0,58.9,41.0,42.0,33.0,23.0,68,42,15,0.00,40.00,6,3,17,0.00
2013-4-19,84.0,63.4,49.0,47.0,40.7,36.0,72,47,21,0.00,40.00,7,3,15,0.00
2013-4-20,80.0,62.0,47.0,52.0,44.7,39.0,96,58,28,0.00,40.00,7,3,16,0.00
2013-4-21,86.0,65.9,49.0,50.0,42.8,37.0,68,46,23,0.00,40.00,7,3,15,0.00
2013-4-22,88.0,70.2,55.0,49.0,41.0,34.0,60,39,15,0.00,40.00,6,3,15,0.00
2013-4-23,84.0,67.1,50.0,47.0,35.5,23.0,74,37,12,0.00,40.00,6,3,15,0.00
2013-4-24,73.0,57.4,44.0,49.0,45.2,39.0,91,67,39,0.00,40.00,6,3,15,0.00
2013-4-25,72.0,57.5,46.0,51.0,47.7,45.0,97,73,45,0.00,40.00,7,3,16,0.00
2013-4-26,73.0,57.9,46.0,51.0,48.2,45.0,97,73,45,0.00,40.00,7,4,14,0.00
2013-4-27,78.0,59.3,46.0,53.0,48.8,45.0,100,73,39,0.00,40.00,6,3,12,0.00
2013-4-28,85.0,63.6,45.0,55.0,50.0,45.0,100,68,28,0.00,40.00,6,3,16,0.00
2013-4-29,90.0,71.3,55.0,55.0,48.8,44.0,78,50,21,0.00,40.00,7,3,16,0.00
2013-4-30,81.0,66.5,50.0,52.0,45.0,12.0,90,51,13,0.00,40.00,6,4,17,0.00
2013-5-1,87.0,72.0,56.0,52.0,30.0,12.0,88,25,10,0.00,40.00,7,4,16,0.00
2013-5-2,94.0,73.1,55.0,45.0,35.0,23.0,52,29,12,0.00,40.00,7,3,15,0.00
2013-5-3,91.0,71.4,56.0,39.0,27.9,24.0,34,22,9,0.00,40.00,7,3,17,0.00
2013-5-4,90.0,70.1,53.0,46.0,37.3,29.0,75,33,15,0.00,40.00,6,3,13,0.00
2013-5-5,73.0,61.1,51.0,47.0,45.2,43.0,78,58,34,0.00,40.00,7,4,19,0.00
2013-5-6,68.0,60.4,53.0,49.0,46.1,44.0,77,60,44,0.00,40.00,6,3,15,0.00
2013-5-7,75.0,62.2,52.0,49.0,46.8,43.0,81,60,39,0.00,40.00,6,3,16,0.00
2013-5-8,70.0,57.9,49.0,52.0,47.6,41.0,90,70,49,0.00,40.00,7,3,15,0.00
2013-5-9,70.0,57.5,48.0,50.0,48.4,46.0,94,74,44,0.00,40.00,7,3,14,0.00
2013-5-10,76.0,60.3,48.0,54.0,49.2,-99.9,96,73,46,0.00,40.00,7,3,14,0.00
2013-5-11,90.0,66.8,49.0,58.0,52.2,48.0,98,66,25,0.00,40.00,6,3,13,0.00
2013-5-12,84.0,67.4,53.0,56.0,49.7,31.0,91,56,32,0.00,40.00,6,2,13,0.00
2013-5-13,82.0,64.6,49.0,55.0,47.6,32.0,73,56,38,0.00,40.00,7,3,15,0.00
2013-5-14,80.0,63.1,49.0,52.0,47.4,40.0,92,60,33,0.00,40.00,7,3,15,0.00
2013-5-15,72.0,57.1,45.0,48.0,42.8,38.0,90,63,29,0.00,40.00,6,3,15,0.00
2013-5-16,73.0,55.1,50.0,54.0,29.0,-99.9,92,70,37,0.00,40.00,6,3,16,0.01
2013-5-17,72.0,57.2,46.0,48.0,37.8,-99.9,90,62,28,0.00,40.00,8,4,15,0.01
2013-5-18,75.0,58.8,43.0,49.0,43.3,39.0,89,60,30,0.00,40.00,7,4,14,0.00
2013-5-19,81.0,63.4,46.0,50.0,43.9,34.0,91,55,25,0.00,40.00,8,4,17,0.00
2013-5-20,89.0,70.0,51.0,47.0,38.6,27.0,69,37,13,0.00,40.00,7,3,15,0.00
2013-5-21,73.0,59.0,49.0,48.0,40.1,33.0,77,51,30,0.00,40.00,7,4,17,0.00
2013-5-22,65.0,52.4,41.0,42.0,36.2,29.0,85,59,29,0.00,40.00,8,4,19,0.00
2013-5-23,68.0,54.5,41.0,42.0,38.3,28.0,87,57,35,0.00,40.00,7,4,16,0.00
2013-5-24,73.0,55.9,41.0,43.0,37.6,32.0,74,53,29,0.00,40.00,7,3,17,0.00
2013-5-25,71.0,55.5,42.0,47.0,41.0,35.0,83,61,37,0.00,40.00,7,3,14,0.00
2013-5-26,72.0,59.1,52.0,54.0,49.9,45.0,100,75,40,0.00,40.00,7,3,16,0.02
2013-5-27,65.0,58.6,53.0,54.0,50.0,47.0,87,74,58,0.00,40.00,6,3,14,0.01
2013-5-28,74.0,61.8,53.0,57.0,52.0,46.0,98,73,44,0.00,40.00,7,3,15,0.00
2013-5-29,72.0,60.6,50.0,54.0,47.8,44.0,84,64,42,0.00,40.00,8,4,18,0.00
2013-5-30,78.0,60.1,44.0,47.0,39.8,28.0,92,55,16,0.00,40.00,7,3,14,0.00
2013-5-31,87.0,65.9,47.0,47.0,40.4,34.0,68,43,19,0.00,40.00,7,3,17,0.00
2013-6-1,92.0,71.4,54.0,53.0,45.1,39.0,65,43,17,0.00,40.00,7,3,15,0.00
2013-6-2,85.0,66.3,52.0,54.0,49.0,45.0,85,57,30,0.00,40.00,7,2,15,0.00
2013-6-3,82.0,63.2,48.0,54.0,49.8,46.0,96,66,36,0.00,40.00,7,3,14,0.00
2013-6-4,77.0,62.7,50.0,54.0,51.0,48.0,95,69,44,0.00,40.00,6,3,13,0.00
2013-6-5,75.0,61.8,50.0,54.0,51.0,49.0,97,71,46,0.00,40.00,7,3,14,0.00
2013-6-6,82.0,63.6,48.0,55.0,51.6,47.0,99,69,40,0.00,40.00,6,3,12,0.00
2013-6-7,93.0,70.5,51.0,60.0,54.6,50.0,100,63,31,0.00,40.00,7,2,14,0.00
2013-6-8,95.0,75.4,60.0,60.0,55.3,46.0,83,52,31,0.00,40.00,5,3,11,0.00
2013-6-9,82.0,66.2,55.0,57.0,53.7,51.0,94,67,37,0.00,40.00,7,2,14,0.00
2013-6-10,77.0,64.5,54.0,51.0,50.3,48.0,87,62,41,0.00,40.00,4,2,12,0.00
2013-6-11,75.0,63.8,54.0,57.0,52.9,50.0,86,69,50,0.00,40.00,6,2,15,0.00
2013-6-12,81.0,63.9,50.0,52.0,43.5,33.0,83,53,19,0.00,40.00,7,3,14,0.00
2013-6-13,80.0,62.1,46.0,49.0,39.8,32.0,78,48,22,0.00,40.00,8,3,17,0.00
2013-6-14,86.0,67.6,50.0,49.0,39.3,31.0,69,41,14,0.00,40.00,7,3,15,0.00
2013-6-15,78.0,62.0,48.0,52.0,46.0,35.0,85,58,40,0.00,40.00,7,3,16,0.00
2013-6-16,79.0,62.9,48.0,50.0,45.3,38.0,74,55,31,0.00,40.00,7,3,19,0.00
2013-6-17,74.0,60.7,50.0,53.0,48.7,43.0,87,66,46,0.00,40.00,8,3,19,0.00
2013-6-18,70.0,60.2,52.0,52.0,47.7,41.0,87,66,36,0.00,40.00,8,4,19,0.00
2013-6-19,74.0,60.5,50.0,49.0,46.5,43.0,89,63,34,0.00,40.00,7,4,17,0.00
2013-6-20,76.0,55.3,46.0,49.0,45.5,43.0,90,73,36,0.00,40.00,6,2,12,0.00
2013-6-22,90.0,74.1,57.0,51.0,44.6,36.0,70,37,20,0.00,40.00,7,4,16,0.00
2013-6-23,72.0,63.5,54.0,59.0,54.7,48.0,92,74,55,0.00,40.00,5,3,10,0.00
2013-6-24,71.0,64.1,60.0,62.0,58.9,57.0,98,84,67,0.00,40.00,4,2,11,0.02
2013-6-25,80.0,70.3,63.0,62.0,59.4,54.0,82,69,52,0.00,40.00,6,4,12,0.01
2013-6-26,87.0,72.5,63.0,64.0,60.1,56.0,93,68,43,0.00,40.00,7,3,18,0.00
2013-6-27,90.0,72.0,57.0,62.0,56.3,53.0,94,63,30,0.00,40.00,7,3,16,0.00
2013-6-28,98.0,80.0,62.0,60.0,51.5,42.0,69,41,19,0.00,40.00,6,3,15,0.00
2013-6-29,102.0,82.8,67.0,54.0,47.4,43.0,43,31,16,0.00,40.00,7,3,16,0.00
2013-6-30,96.0,78.6,63.0,59.0,51.2,45.0,72,41,23,0.00,40.00,7,3,12,0.00
2013-7-1,99.0,77.7,60.0,60.0,53.8,43.0,77,48,21,0.00,40.00,6,2,13,0.00
2013-7-2,102.0,79.9,65.0,62.0,58.1,55.0,78,51,25,0.00,40.00,6,2,10,0.00
2013-7-3,98.0,76.4,59.0,61.0,57.9,54.0,90,58,25,0.00,40.00,6,2,12,0.00
2013-7-4,101.0,80.1,66.0,63.0,57.4,46.0,81,51,23,0.00,40.00,7,3,12,0.00
2013-7-5,79.0,67.3,55.0,54.0,50.2,41.0,82,56,33,0.00,40.00,7,3,13,0.00
2013-7-6,84.0,62.8,51.0,55.0,51.4,48.0,94,70,37,0.00,40.00,7,2,13,0.00
2013-7-7,87.0,66.0,49.0,57.0,52.3,46.0,92,66,33,0.00,40.00,6,3,12,0.00
2013-7-8,88.0,64.6,48.0,57.0,53.1,47.0,97,71,34,0.00,40.00,6,3,11,0.00
2013-7-9,94.0,71.6,54.0,61.0,54.1,47.0,87,59,27,0.00,40.00,7,3,15,0.00
2013-7-10,86.0,68.0,54.0,60.0,51.9,-99.9,92,63,39,0.00,40.00,6,3,11,0.00
2013-7-11,82.0,63.6,52.0,56.0,52.6,50.0,95,71,39,0.00,40.00,7,3,14,0.00
2013-7-12,84.0,64.5,48.0,56.0,50.9,47.0,96,66,36,0.00,40.00,7,3,17,0.00
2013-7-13,91.0,70.1,52.0,54.0,48.3,41.0,81,50,27,0.00,40.00,6,3,14,0.00
2013-7-14,85.0,66.0,52.0,57.0,51.5,44.0,87,62,38,0.00,40.00,7,3,15,0.00
2013-7-15,78.0,62.3,52.0,56.0,52.5,50.0,95,73,45,0.00,40.00,7,4,14,0.00
2013-7-16,76.0,68.0,55.0,54.0,52.7,52.0,89,60,46,0.00,40.00,6,5,14,0.00
2013-7-17,80.0,64.5,54.0,57.0,54.3,52.0,93,71,44,0.00,40.00,7,4,15,0.00
2013-7-18,90.0,68.6,51.0,56.0,52.7,46.0,96,63,29,0.00,40.00,7,3,14,0.00
2013-7-19,89.0,66.6,50.0,58.0,53.6,47.0,95,67,34,0.00,40.00,6,3,14,0.00
2013-7-20,90.0,66.3,53.0,60.0,53.4,-99.9,96,70,35,0.00,40.00,6,3,11,0.00
2013-7-21,90.0,69.3,52.0,58.0,53.3,49.0,93,62,32,0.00,40.00,6,3,10,0.00
2013-7-22,81.0,68.1,56.0,62.0,56.0,51.0,90,67,41,0.00,40.00,5,2,10,0.00
2013-7-23,87.0,71.0,62.0,60.0,57.1,53.0,86,65,36,0.00,40.00,7,3,15,0.00
2013-7-24,90.0,72.1,57.0,60.0,52.1,42.0,86,56,21,0.00,40.00,7,3,15,0.00
2013-7-25,89.0,70.3,56.0,59.0,52.1,43.0,83,55,33,0.00,40.00,6,3,14,0.00
2013-7-26,88.0,67.1,54.0,60.0,55.0,51.0,91,69,38,0.00,40.00,6,3,12,0.00
2013-7-27,84.0,67.0,54.0,59.0,55.5,51.0,94,70,42,0.00,40.00,7,3,12,0.00
2013-7-28,85.0,65.3,52.0,58.0,53.8,51.0,96,71,35,0.00,40.00,7,3,13,0.00
2013-7-29,85.0,64.3,50.0,56.0,51.9,48.0,93,69,33,0.00,40.00,7,3,13,0.00
2013-7-30,83.0,64.8,48.0,58.0,52.4,46.0,94,68,39,0.00,40.00,7,3,14,0.00
2013-7-31,82.0,65.4,51.0,55.0,50.4,42.0,95,62,38,0.00,40.00,7,3,15,0.00
2013-8-1,80.0,63.5,49.0,53.0,47.1,42.0,79,58,37,0.00,40.00,7,3,15,0.00
2013-8-2,85.0,64.0,49.0,55.0,48.5,41.0,81,61,32,0.00,40.00,6,3,13,0.00
2013-8-3,84.0,63.7,48.0,56.0,51.2,45.0,92,68,31,0.00,40.00,7,3,13,0.00
2013-8-4,81.0,62.5,51.0,57.0,52.8,49.0,96,74,43,0.00,40.00,7,3,15,0.00
2013-8-5,78.0,61.8,52.0,56.0,52.8,50.0,95,75,45,0.00,40.00,8,3,16,0.00
2013-8-6,77.0,62.5,52.0,56.0,52.8,50.0,95,73,47,0.00,40.00,7,4,15,0.00
2013-8-7,78.0,64.3,53.0,55.0,53.2,50.0,90,70,43,0.00,40.00,7,3,15,0.00
2013-8-8,78.0,62.8,53.0,57.0,53.4,50.0,92,74,45,0.00,40.00,7,4,18,0.00
2013-8-9,77.0,64.0,55.0,57.0,53.8,51.0,92,72,48,0.00,40.00,7,4,14,0.00
2013-8-10,81.0,65.4,54.0,59.0,55.1,52.0,94,73,44,0.00,40.00,7,4,15,0.00
2013-8-11,81.0,65.7,54.0,58.0,53.8,49.0,94,70,38,0.00,40.00,7,4,14,0.00
2013-8-21,82.0,65.4,53.0,57.0,53.8,50.0,92,69,39,0.00,40.00,7,3,14,0.00
2013-8-22,79.0,63.9,54.0,58.0,54.2,51.0,93,73,45,0.00,40.00,8,3,16,0.00
2013-8-23,80.0,64.3,52.0,57.0,53.0,47.0,94,70,44,0.00,40.00,7,3,16,0.00
2013-8-24,82.0,66.1,53.0,58.0,52.1,46.0,89,63,40,0.00,40.00,7,3,17,0.00
2013-8-25,86.0,69.6,58.0,62.0,58.5,55.0,91,70,42,0.00,40.00,8,3,16,0.00
2013-8-26,80.0,66.9,56.0,59.0,55.4,50.0,91,69,38,0.00,40.00,7,4,15,0.00
2013-8-27,78.0,59.3,53.0,56.0,49.5,46.0,80,71,43,0.00,40.00,6,2,11,0.00
2013-9-24,73.0,61.9,54.0,56.0,51.4,48.0,93,71,41,0.00,40.00,5,2,16,0.00
2013-9-25,69.0,58.8,50.0,53.0,48.0,44.0,91,70,40,0.00,40.00,7,3,16,0.00
2013-9-26,74.0,58.5,45.0,48.0,40.3,31.0,96,57,26,0.00,40.00,6,3,16,0.00
2013-9-27,78.0,62.2,47.0,45.0,36.5,32.0,63,42,19,0.00,40.00,7,2,17,0.00
2013-9-28,85.0,66.4,53.0,47.0,36.3,31.0,71,37,16,0.00,40.00,8,3,14,0.00
2013-9-29,80.0,64.7,51.0,57.0,52.6,46.0,88,67,41,0.00,40.00,7,3,15,0.00
2013-9-30,77.0,65.9,55.0,58.0,55.5,52.0,93,71,49,0.00,40.00,7,3,16,0.00
2013-12-26,71.0,53.1,43.0,39.0,31.6,23.0,56,45,30,0.00,40.00,4,1,7,0.00
2013-12-27,61.0,51.8,46.0,38.0,29.0,20.0,62,42,31,0.00,40.00,6,2,17,0.00
2013-12-28,66.0,49.6,38.0,40.0,28.3,19.0,66,45,27,0.00,40.00,6,2,11,0.00
2013-12-29,69.0,53.3,43.0,27.0,22.0,16.0,45,31,16,0.00,40.00,5,2,14,0.00
2013-12-30,69.0,52.3,43.0,33.0,24.1,18.0,40,34,22,0.00,40.00,4,2,7,0.00
2013-12-31,63.0,48.6,41.0,39.0,28.9,16.0,69,48,35,0.00,40.00,5,2,8,0.00
2014-1-1,66.0,50.0,40.0,37.0,28.4,19.0,58,44,32,0.00,40.00,4,2,8,0.00